Terminal Aerodrome Forecast
Issued by NWS

Home | Current Version | Previous Version | Text Only | Print | Product List | Glossary On
Versions: 1 2 3 4 5 6 7 8 9 10 11 12 13 14 15 16 17
179
FTUS43 KEAX 261722
TAFSTJ
TAF
KSTJ 261722Z 2618/2718 32015KT P6SM OVC025
      TEMPO 2621/2624 SCT025 BKN035
     FM270100 33008KT P6SM BKN035
     FM270700 31007KT P6SM SCT060
     FM271300 27006KT P6SM FEW200=

USA.gov is the U.S. government's official web portal to all federal, state and local government web resources and services.